createdAt,value
2017-11-24T00:02:07.969Z,5.43
2017-11-24T00:04:35.500Z,4.47
2017-11-24T00:07:03.052Z,6.23
2017-11-24T00:09:30.568Z,6.80
2017-11-24T00:11:58.110Z,5.80
2017-11-24T00:14:25.629Z,6.90
2017-11-24T00:16:53.927Z,5.63
2017-11-24T00:19:21.445Z,7.10
2017-11-24T00:21:48.983Z,5.80
2017-11-24T00:24:16.505Z,5.67
2017-11-24T00:26:44.052Z,4.77
2017-11-24T00:29:12.340Z,5.27
2017-11-24T00:31:40.627Z,4.50
2017-11-24T00:34:08.936Z,6.80
2017-11-24T00:36:36.451Z,5.10
2017-11-24T00:39:04.000Z,5.30
2017-11-24T00:41:31.537Z,6.07
2017-11-24T00:43:59.085Z,5.83
2017-11-24T00:46:26.613Z,5.37
2017-11-24T00:48:54.921Z,6.13
2017-11-24T00:51:22.457Z,6.73
2017-11-24T00:53:50.761Z,7.03
2017-11-24T00:56:18.271Z,7.80
2017-11-24T00:58:45.817Z,6.83
2017-11-24T01:01:13.341Z,5.40
2017-11-24T01:03:41.647Z,5.40
2017-11-24T01:06:09.177Z,4.63
2017-11-24T01:08:37.493Z,5.47
2017-11-24T01:11:05.007Z,5.30
2017-11-24T01:13:32.556Z,6.13
2017-11-24T01:16:00.074Z,7.37
2017-11-24T01:18:27.615Z,5.57
2017-11-24T01:20:55.895Z,4.67
2017-11-24T01:23:24.198Z,5.60
2017-11-24T01:25:51.723Z,6.30
2017-11-24T01:28:19.264Z,5.23
2017-11-24T01:30:46.780Z,5.97
2017-11-24T01:33:15.080Z,5.47
2017-11-24T01:35:42.614Z,5.57
2017-11-24T01:38:10.914Z,4.70
2017-11-24T01:40:38.439Z,5.00
2017-11-24T01:43:05.979Z,4.30
2017-11-24T01:45:33.521Z,4.43
2017-11-24T01:48:01.072Z,5.33
2017-11-24T01:50:29.352Z,5.10
2017-11-24T01:52:56.912Z,4.60
2017-11-24T01:55:25.199Z,5.30
2017-11-24T01:57:52.717Z,6.27
2017-11-24T02:00:20.264Z,6.40
2017-11-24T02:02:47.794Z,6.30
2017-11-24T02:05:15.336Z,5.70
2017-11-24T02:07:43.623Z,5.17
2017-11-24T02:10:11.928Z,5.73
2017-11-24T02:12:39.464Z,4.90
2017-11-24T02:15:07.772Z,4.77
2017-11-24T02:17:35.286Z,5.00
2017-11-24T02:20:02.820Z,5.73
2017-11-24T02:22:30.345Z,5.30
2017-11-24T02:24:57.905Z,5.70
2017-11-24T02:27:25.421Z,5.30
2017-11-24T02:29:52.937Z,5.30
2017-11-24T02:32:20.482Z,5.10
2017-11-24T02:34:48.792Z,4.97
2017-11-24T02:37:16.330Z,5.00
2017-11-24T02:39:44.617Z,4.20
2017-11-24T02:42:12.161Z,6.07
2017-11-24T02:44:40.498Z,5.80
2017-11-24T02:47:08.085Z,5.13
2017-11-24T02:49:35.640Z,5.67
2017-11-24T02:52:03.990Z,5.50
2017-11-24T02:54:31.552Z,4.90
2017-11-24T02:56:59.133Z,4.60
2017-11-24T02:59:26.705Z,4.00
2017-11-24T03:01:54.288Z,4.10
2017-11-24T03:04:21.808Z,4.90
2017-11-24T03:06:49.370Z,4.60
2017-11-24T03:09:16.894Z,4.63
2017-11-24T03:11:44.416Z,3.90
2017-11-24T03:14:11.955Z,4.27
2017-11-24T03:16:39.475Z,3.47
2017-11-24T03:19:07.011Z,4.03
2017-11-24T03:21:34.531Z,3.80
2017-11-24T03:24:02.833Z,3.13
2017-11-24T03:26:30.358Z,3.90
2017-11-24T03:28:57.899Z,4.20
2017-11-24T03:31:25.421Z,4.20
2017-11-24T03:33:52.965Z,4.40
2017-11-24T03:36:21.253Z,3.37
2017-11-24T03:38:48.796Z,3.50
2017-11-24T03:41:17.080Z,3.60
2017-11-24T03:43:45.393Z,4.30
2017-11-24T03:46:12.918Z,4.40
2017-11-24T03:48:40.485Z,3.90
2017-11-24T03:51:08.771Z,3.50
2017-11-24T03:53:37.060Z,3.00
2017-11-24T03:56:04.610Z,4.30
2017-11-24T03:58:32.896Z,3.80
2017-11-24T04:01:01.208Z,3.90
2017-11-24T04:03:28.733Z,3.60
2017-11-24T04:05:57.040Z,4.00
2017-11-24T04:08:24.559Z,3.47
2017-11-24T04:10:52.099Z,4.40
2017-11-24T04:13:19.617Z,4.20
2017-11-24T04:15:47.926Z,4.33
2017-11-24T04:18:15.447Z,4.07
2017-11-24T04:20:42.983Z,3.80
2017-11-24T04:23:10.510Z,4.00
2017-11-24T04:25:38.052Z,3.17
2017-11-24T04:28:06.345Z,3.50
2017-11-24T04:30:34.664Z,3.43
2017-11-24T04:33:02.189Z,3.80
2017-11-24T04:35:29.716Z,3.73
2017-11-24T04:37:57.274Z,4.20
2017-11-24T04:40:24.794Z,4.13
2017-11-24T04:42:52.339Z,3.27
2017-11-24T04:45:20.623Z,3.57
2017-11-24T04:47:48.168Z,3.60
2017-11-24T04:50:16.460Z,3.43
2017-11-24T04:52:44.772Z,3.90
2017-11-24T04:55:12.297Z,4.10
2017-11-24T04:57:40.604Z,3.50
2017-11-24T05:00:08.134Z,3.27
2017-11-24T05:02:36.443Z,4.20
2017-11-24T05:05:03.965Z,3.73
2017-11-24T05:07:31.498Z,3.60
2017-11-24T05:09:59.024Z,3.87
2017-11-24T05:12:27.327Z,3.67
2017-11-24T05:14:54.849Z,3.37
2017-11-24T05:17:22.397Z,3.43
2017-11-24T05:19:49.921Z,3.67
2017-11-24T05:22:17.479Z,3.40
2017-11-24T05:24:45.008Z,3.47
2017-11-24T05:27:13.300Z,3.20
2017-11-24T05:29:40.840Z,4.00
2017-11-24T05:32:08.357Z,3.57
2017-11-24T05:37:08.796Z,3.00
2017-11-24T05:39:37.107Z,3.80
2017-11-24T05:42:04.635Z,3.70
2017-11-24T05:44:32.945Z,3.23
2017-11-24T05:47:00.473Z,3.33
2017-11-24T05:49:28.793Z,3.67
2017-11-24T05:51:56.312Z,3.47
2017-11-24T05:54:23.856Z,3.67
2017-11-24T05:56:51.391Z,3.67
2017-11-24T05:59:18.937Z,3.40
2017-11-24T06:01:46.456Z,4.17
2017-11-24T06:04:13.996Z,3.07
2017-11-24T06:06:41.520Z,3.37
2017-11-24T06:09:09.069Z,3.30
2017-11-24T06:11:37.364Z,4.50
2017-11-24T06:14:04.910Z,3.10
2017-11-24T06:16:33.203Z,4.93
2017-11-24T06:19:00.758Z,3.90
2017-11-24T06:21:29.050Z,3.50
2017-11-24T06:23:56.588Z,3.10
2017-11-24T06:26:24.873Z,3.90
2017-11-24T06:28:53.175Z,3.17
2017-11-24T06:31:20.695Z,4.30
2017-11-24T06:33:48.229Z,3.60
2017-11-24T06:36:15.753Z,4.00
2017-11-24T06:38:44.081Z,3.50
2017-11-24T06:41:11.596Z,5.10
2017-11-24T06:43:39.884Z,3.97
2017-11-24T06:46:07.424Z,4.70
2017-11-24T06:48:35.710Z,3.17
2017-11-24T06:51:04.020Z,3.40
2017-11-24T06:53:31.544Z,3.73
2017-11-24T06:55:59.099Z,4.23
2017-11-24T06:58:26.616Z,4.40
2017-11-24T07:00:54.151Z,4.13
2017-11-24T07:03:22.447Z,4.30
2017-11-24T07:05:49.988Z,3.67
2017-11-24T07:08:18.269Z,4.50
2017-11-24T07:10:46.571Z,4.77
2017-11-24T07:13:14.086Z,4.00
2017-11-24T07:15:41.627Z,4.63
2017-11-24T07:18:09.148Z,4.50
2017-11-24T07:20:37.453Z,4.53
2017-11-24T07:23:04.964Z,5.10
2017-11-24T07:25:32.506Z,5.60
2017-11-24T07:28:00.029Z,5.50
2017-11-24T07:30:27.547Z,5.77
2017-11-24T07:32:55.083Z,5.03
2017-11-24T07:35:22.604Z,5.30
2017-11-24T07:37:50.914Z,5.33
2017-11-24T07:40:18.445Z,6.20
2017-11-24T07:42:46.765Z,5.53
2017-11-24T07:45:14.279Z,4.90
2017-11-24T07:47:41.824Z,4.63
2017-11-24T07:50:09.339Z,6.67
2017-11-24T07:52:36.892Z,4.60
2017-11-24T07:55:05.178Z,4.00
2017-11-24T07:57:32.710Z,5.53
2017-11-24T08:00:00.253Z,5.03
2017-11-24T08:02:28.548Z,4.90
2017-11-24T08:04:56.109Z,5.47
2017-11-24T08:07:23.633Z,5.27
2017-11-24T08:09:51.165Z,4.70
2017-11-24T08:12:19.456Z,4.60
2017-11-24T08:14:47.770Z,4.97
2017-11-24T08:17:15.293Z,4.50
2017-11-24T08:19:43.616Z,5.00
2017-11-24T08:22:11.137Z,4.70
2017-11-24T08:24:39.421Z,4.20
2017-11-24T08:27:07.725Z,4.57
2017-11-24T08:29:35.259Z,5.97
2017-11-24T08:32:03.574Z,5.53
2017-11-24T08:34:31.091Z,6.60
2017-11-24T08:36:58.629Z,5.53
2017-11-24T08:39:26.152Z,5.60
2017-11-24T08:41:53.692Z,5.20
2017-11-24T08:44:21.207Z,4.23
2017-11-24T08:46:54.504Z,5.20
2017-11-24T08:49:27.742Z,4.60
2017-11-24T08:51:55.319Z,4.33
2017-11-24T08:54:22.849Z,6.40
2017-11-24T08:56:50.411Z,5.90
2017-11-24T08:59:17.935Z,4.87
2017-11-24T09:01:46.219Z,5.20
2017-11-24T09:04:14.525Z,5.40
2017-11-24T09:06:42.065Z,5.93
2017-11-24T09:09:10.372Z,5.10
2017-11-24T09:11:37.898Z,5.20
2017-11-24T09:14:06.204Z,5.33
2017-11-24T09:16:33.729Z,5.33
2017-11-24T09:19:01.276Z,4.43
2017-11-24T09:21:28.807Z,5.80
2017-11-24T09:23:56.360Z,4.20
2017-11-24T09:26:23.888Z,4.70
2017-11-24T09:28:51.429Z,5.20
2017-11-24T09:31:18.957Z,4.10
2017-11-24T09:33:46.500Z,4.90
2017-11-24T09:36:14.796Z,4.27
2017-11-24T09:38:42.346Z,4.60
2017-11-24T09:41:10.632Z,5.40
2017-11-24T09:43:38.945Z,5.33
2017-11-24T09:46:06.469Z,4.67
2017-11-24T09:48:34.803Z,4.40
2017-11-24T09:51:02.322Z,5.10
2017-11-24T09:53:30.607Z,5.30
2017-11-24T09:55:58.917Z,5.50
2017-11-24T09:58:26.445Z,4.93
2017-11-24T10:00:54.756Z,4.67
2017-11-24T10:03:22.276Z,5.40
2017-11-24T10:05:49.821Z,4.57
2017-11-24T10:08:17.348Z,6.03
2017-11-24T10:10:44.908Z,5.10
2017-11-24T10:13:12.437Z,5.00
2017-11-24T10:15:39.976Z,5.67
2017-11-24T10:18:07.492Z,5.17
2017-11-24T10:20:40.823Z,6.00
2017-11-24T10:23:08.343Z,5.43
2017-11-24T10:25:36.637Z,5.40
2017-11-24T10:28:04.186Z,5.70
2017-11-24T10:30:32.477Z,6.03
2017-11-24T10:33:00.796Z,5.80
2017-11-24T10:35:28.316Z,7.03
2017-11-24T10:37:56.643Z,5.20
2017-11-24T10:40:24.167Z,4.77
2017-11-24T10:42:52.481Z,5.00
2017-11-24T10:45:20.004Z,5.03
2017-11-24T10:47:48.314Z,4.60
2017-11-24T10:50:15.839Z,4.27
2017-11-24T10:52:43.388Z,10.00
2017-11-24T10:55:10.918Z,5.70
2017-11-24T10:57:38.481Z,6.80
2017-11-24T11:00:06.003Z,6.03
2017-11-24T11:02:34.292Z,6.40
2017-11-24T11:05:02.602Z,5.27
2017-11-24T11:07:30.129Z,4.87
2017-11-24T11:09:57.682Z,5.00
2017-11-24T11:12:25.201Z,4.37
2017-11-24T11:14:52.748Z,5.20
2017-11-24T11:17:20.275Z,4.90
2017-11-24T11:19:47.816Z,5.30
2017-11-24T11:22:15.343Z,4.33
2017-11-24T11:24:42.879Z,4.60
2017-11-24T11:27:11.167Z,4.13
2017-11-24T11:29:39.480Z,5.07
2017-11-24T11:32:07.011Z,4.90
2017-11-24T11:34:35.330Z,5.20
2017-11-24T11:37:02.862Z,5.47
2017-11-24T11:39:31.162Z,4.73
2017-11-24T11:41:58.686Z,5.10
2017-11-24T11:44:26.231Z,4.20
2017-11-24T11:46:53.753Z,4.33
2017-11-24T11:49:21.293Z,3.57
2017-11-24T11:51:49.585Z,4.00
2017-11-24T11:54:17.131Z,4.00
2017-11-24T11:56:44.666Z,4.20
2017-11-24T11:59:12.209Z,4.13
2017-11-24T12:01:39.741Z,4.90
2017-11-24T12:04:08.044Z,4.27
2017-11-24T12:06:35.586Z,4.83
2017-11-24T12:09:03.894Z,4.60
2017-11-24T12:11:31.415Z,4.20
2017-11-24T12:13:58.959Z,4.70
2017-11-24T12:16:26.479Z,4.07
2017-11-24T12:18:54.033Z,4.20
2017-11-24T12:21:21.568Z,5.80
2017-11-24T12:23:49.117Z,4.90
2017-11-24T12:26:16.638Z,4.03
2017-11-24T12:28:44.155Z,4.37
2017-11-24T12:31:11.697Z,4.63
2017-11-24T12:33:39.222Z,4.67
2017-11-24T12:36:06.764Z,4.00
2017-11-24T12:38:35.056Z,4.20
2017-11-24T12:41:02.613Z,4.10
2017-11-24T12:43:30.904Z,5.17
2017-11-24T12:45:59.209Z,4.50
2017-11-24T12:48:26.731Z,4.23
2017-11-24T12:50:54.277Z,4.30
2017-11-24T12:53:21.800Z,4.30
2017-11-24T12:55:49.344Z,4.90
2017-11-24T12:58:16.863Z,4.40
2017-11-24T13:00:44.396Z,5.03
2017-11-24T13:03:11.927Z,4.60
2017-11-24T13:05:40.228Z,4.37
2017-11-24T13:08:07.748Z,4.10
2017-11-24T13:10:35.286Z,3.90
2017-11-24T13:13:02.832Z,4.20
2017-11-24T13:15:30.372Z,4.83
2017-11-24T13:17:57.899Z,4.17
2017-11-24T13:20:25.450Z,4.50
2017-11-24T13:22:52.981Z,4.30
2017-11-24T13:25:20.545Z,4.60
2017-11-24T13:27:48.067Z,3.90
2017-11-24T13:30:16.360Z,4.60
2017-11-24T13:32:43.903Z,4.57
2017-11-24T13:35:11.424Z,4.70
2017-11-24T13:37:38.960Z,4.97
2017-11-24T13:40:06.485Z,4.83
2017-11-24T13:42:34.024Z,4.43
2017-11-24T13:45:01.548Z,5.00
2017-11-24T13:47:29.092Z,4.97
2017-11-24T13:49:57.380Z,4.40
2017-11-24T13:52:24.924Z,4.77
2017-11-24T13:54:53.215Z,3.47
2017-11-24T13:57:21.557Z,4.10
2017-11-24T13:59:49.080Z,4.23
2017-11-24T14:02:16.632Z,4.87
2017-11-24T14:04:44.915Z,5.07
2017-11-24T14:07:12.470Z,10.40
2017-11-24T14:09:40.750Z,8.00
2017-11-24T14:12:09.045Z,5.03
2017-11-24T14:14:36.604Z,4.13
2017-11-24T14:17:04.128Z,4.73
2017-11-24T14:19:31.672Z,4.00
2017-11-24T14:21:59.965Z,6.63
2017-11-24T14:24:27.512Z,4.10
2017-11-24T14:26:55.032Z,5.17
2017-11-24T14:29:23.337Z,4.13
2017-11-24T14:31:50.860Z,3.57
2017-11-24T14:34:19.160Z,3.27
2017-11-24T14:36:47.448Z,4.10
2017-11-24T14:39:15.009Z,4.70
2017-11-24T14:41:43.301Z,4.20
2017-11-24T14:44:10.838Z,3.30
2017-11-24T14:46:39.161Z,3.80
2017-11-24T14:49:06.683Z,4.27
2017-11-24T14:51:35.001Z,4.30
2017-11-24T14:54:02.533Z,3.73
2017-11-24T14:56:30.841Z,3.60
2017-11-24T14:58:58.365Z,3.97
2017-11-24T15:01:25.907Z,4.43
2017-11-24T15:03:53.436Z,4.67
2017-11-24T15:06:20.983Z,4.27
2017-11-24T15:08:48.508Z,3.50
2017-11-24T15:11:16.074Z,4.40
2017-11-24T15:13:43.591Z,4.30
2017-11-24T15:16:11.117Z,4.50
2017-11-24T15:18:38.665Z,4.47
2017-11-24T15:21:06.193Z,4.03
2017-11-24T15:23:33.737Z,4.63
2017-11-24T15:26:02.032Z,3.90
2017-11-24T15:28:29.574Z,4.20
2017-11-24T15:30:57.863Z,3.90
2017-11-24T15:33:26.179Z,3.40
2017-11-24T15:35:53.709Z,3.83
2017-11-24T15:38:22.021Z,4.10
2017-11-24T15:40:49.553Z,4.20
2017-11-24T15:43:17.073Z,3.93
2017-11-24T15:45:44.616Z,3.93
2017-11-24T15:48:12.139Z,4.23
2017-11-24T15:50:39.695Z,3.50
2017-11-24T15:53:07.984Z,4.90
2017-11-24T15:55:35.527Z,5.27
2017-11-24T15:58:03.815Z,3.53
2017-11-24T16:00:32.186Z,3.70
2017-11-24T16:02:59.712Z,4.07
2017-11-24T16:05:27.264Z,4.20
2017-11-24T16:07:54.793Z,4.00
2017-11-24T16:10:23.085Z,4.40
2017-11-24T16:12:50.628Z,3.70
2017-11-24T16:15:18.919Z,4.93
2017-11-24T16:17:47.224Z,4.00
2017-11-24T16:20:14.749Z,8.73
2017-11-24T16:22:43.065Z,7.87
2017-11-24T16:25:10.579Z,5.07
2017-11-24T16:27:38.128Z,10.43
2017-11-24T16:30:05.670Z,10.60
2017-11-24T16:32:33.216Z,5.90
2017-11-24T16:35:00.748Z,6.70
2017-11-24T16:37:29.056Z,5.27
2017-11-24T16:39:56.575Z,7.63
2017-11-24T16:42:24.133Z,10.67
2017-11-24T16:44:51.670Z,5.83
2017-11-24T16:47:20.051Z,6.40
2017-11-24T16:49:47.584Z,7.20
2017-11-24T16:52:15.155Z,8.23
2017-11-24T16:54:42.684Z,4.97
2017-11-24T16:57:10.208Z,5.17
2017-11-24T16:59:37.754Z,4.70
2017-11-24T17:02:05.287Z,4.43
2017-11-24T17:04:33.595Z,8.87
2017-11-24T17:07:01.133Z,12.90
2017-11-24T17:09:29.435Z,6.03
2017-11-24T17:11:56.963Z,10.53
2017-11-24T17:14:24.523Z,4.97
2017-11-24T17:16:52.047Z,4.80
2017-11-24T17:19:19.573Z,5.50
2017-11-24T17:21:47.879Z,4.73
2017-11-24T17:24:15.408Z,3.40
2017-11-24T17:26:43.721Z,5.83
2017-11-24T17:29:11.244Z,4.50
2017-11-24T17:31:38.788Z,4.50
2017-11-24T17:34:06.325Z,3.57
2017-11-24T17:36:33.874Z,4.57
2017-11-24T17:39:01.405Z,8.70
2017-11-24T17:41:28.951Z,17.03
2017-11-24T17:43:56.476Z,7.20
2017-11-24T17:46:24.017Z,5.13
2017-11-24T17:48:52.315Z,6.60
2017-11-24T17:51:19.871Z,4.43
2017-11-24T17:53:48.160Z,5.43
2017-11-24T17:56:15.679Z,5.20
2017-11-24T17:58:43.219Z,5.37
2017-11-24T18:01:10.744Z,4.27
2017-11-24T18:03:39.055Z,4.90
2017-11-24T18:06:06.587Z,4.20
2017-11-24T18:08:34.900Z,5.90
2017-11-24T18:11:02.426Z,4.53
2017-11-24T18:13:30.734Z,2.07
2017-11-24T18:15:58.268Z,2.63
2017-11-24T18:18:26.596Z,2.43
2017-11-24T18:20:54.120Z,3.03
2017-11-24T18:23:21.642Z,2.50
2017-11-24T18:25:49.188Z,2.30
2017-11-24T18:28:16.704Z,1.70
2017-11-24T18:30:45.009Z,3.80
2017-11-24T18:33:12.531Z,6.77
2017-11-24T18:35:40.074Z,7.57
2017-11-24T18:38:07.600Z,5.73
2017-11-24T18:40:35.139Z,4.70
2017-11-24T18:43:03.423Z,3.53
2017-11-24T18:45:30.959Z,3.20
2017-11-24T18:47:58.481Z,3.80
2017-11-24T18:50:26.018Z,3.93
2017-11-24T18:52:54.294Z,3.57
2017-11-24T18:55:22.600Z,3.57
2017-11-24T18:57:50.132Z,3.27
2017-11-24T19:00:18.420Z,3.03
2017-11-24T19:02:46.716Z,2.50
2017-11-24T19:05:14.236Z,2.43
2017-11-24T19:07:41.768Z,2.10
2017-11-24T19:10:09.290Z,2.30
2017-11-24T19:12:37.588Z,2.00
2017-11-24T19:15:05.114Z,1.57
2017-11-24T19:17:32.653Z,5.87
2017-11-24T19:20:00.172Z,7.40
2017-11-24T19:22:27.695Z,6.93
2017-11-24T19:24:55.244Z,2.33
2017-11-24T19:27:24.280Z,1.50
2017-11-24T19:29:52.579Z,1.47
2017-11-24T19:32:20.096Z,1.70
2017-11-24T19:34:47.631Z,1.90
2017-11-24T19:37:15.143Z,1.97
2017-11-24T19:39:42.684Z,1.40
2017-11-24T19:42:10.214Z,1.93
2017-11-24T19:44:37.752Z,1.37
2017-11-24T19:47:06.031Z,2.27
2017-11-24T19:49:34.333Z,1.33
2017-11-24T19:52:01.861Z,1.23
2017-11-24T19:54:29.405Z,1.40
2017-11-24T19:56:56.917Z,1.00
2017-11-24T19:59:24.512Z,1.00
2017-11-24T20:01:52.028Z,1.00
2017-11-24T20:04:20.370Z,1.00
2017-11-24T20:06:47.930Z,1.00
2017-11-24T20:09:15.502Z,1.20
2017-11-24T20:11:43.025Z,1.20
2017-11-24T20:14:10.588Z,0.90
2017-11-24T20:16:38.112Z,1.33
2017-11-24T20:19:05.631Z,2.80
2017-11-24T20:21:33.168Z,4.43
2017-11-24T20:24:00.722Z,2.30
2017-11-24T20:26:29.023Z,1.77
2017-11-24T20:28:56.541Z,2.30
2017-11-24T20:31:24.089Z,2.03
2017-11-24T20:33:51.610Z,3.40
2017-11-24T20:36:19.151Z,8.30
2017-11-24T20:38:47.447Z,8.83
2017-11-24T20:41:14.983Z,5.93
2017-11-24T20:43:42.518Z,6.87
2017-11-24T20:46:10.109Z,7.10
2017-11-24T20:48:37.635Z,5.20
2017-11-24T20:51:05.167Z,4.67
2017-11-24T20:53:32.692Z,5.10
2017-11-24T20:56:00.285Z,6.80
2017-11-24T20:58:28.623Z,4.90
2017-11-24T21:00:56.210Z,3.63
2017-11-24T21:03:23.728Z,3.20
2017-11-24T21:05:51.290Z,3.43
2017-11-24T21:08:18.812Z,3.20
2017-11-24T21:10:46.367Z,4.00
2017-11-24T21:13:13.959Z,2.83
2017-11-24T21:15:42.302Z,3.20
2017-11-24T21:18:09.853Z,4.13
2017-11-24T21:20:37.367Z,2.57
2017-11-24T21:23:05.718Z,3.00
2017-11-24T21:25:33.298Z,3.43
2017-11-24T21:28:00.882Z,2.90
2017-11-24T21:30:29.231Z,2.57
2017-11-24T21:32:56.818Z,2.03
2017-11-24T21:35:24.336Z,2.60
2017-11-24T21:37:51.877Z,2.50
2017-11-24T21:40:19.398Z,5.03
2017-11-24T21:42:46.956Z,2.90
2017-11-24T21:45:14.477Z,3.33
2017-11-24T21:47:42.003Z,3.90
2017-11-24T21:50:10.308Z,5.83
2017-11-24T21:52:37.828Z,9.07
2017-11-24T21:55:05.407Z,9.80
2017-11-24T21:57:33.734Z,7.20
2017-11-24T22:00:01.321Z,10.10
2017-11-24T22:02:28.849Z,5.50
2017-11-24T22:04:56.384Z,4.00
2017-11-24T22:07:24.672Z,3.50
2017-11-24T22:09:52.244Z,3.33
2017-11-24T22:12:19.787Z,3.13
2017-11-24T22:14:48.067Z,3.00
2017-11-24T22:17:16.371Z,2.60
2017-11-24T22:19:43.900Z,2.83
2017-11-24T22:22:11.436Z,3.57
2017-11-24T22:24:38.958Z,3.93
2017-11-24T22:27:06.505Z,3.13
2017-11-24T22:29:34.029Z,2.77
2017-11-24T22:32:01.586Z,2.77
2017-11-24T22:34:29.108Z,3.20
2017-11-24T22:36:56.685Z,2.40
2017-11-24T22:39:24.200Z,2.90
2017-11-24T22:41:51.747Z,2.90
2017-11-24T22:44:19.269Z,3.23
2017-11-24T22:46:46.807Z,3.10
2017-11-24T22:49:15.095Z,3.37
2017-11-24T22:51:42.639Z,3.23
2017-11-24T22:54:10.160Z,2.80
2017-11-24T22:56:37.697Z,4.50
2017-11-24T22:59:05.231Z,3.90
2017-11-24T23:01:33.539Z,3.40
2017-11-24T23:04:01.266Z,3.10
2017-11-24T23:06:28.811Z,2.33
2017-11-24T23:08:56.387Z,3.20
2017-11-24T23:11:23.928Z,2.30
2017-11-24T23:13:51.451Z,4.03
2017-11-24T23:16:19.761Z,3.77
2017-11-24T23:18:47.277Z,4.77
2017-11-24T23:21:15.583Z,6.17
2017-11-24T23:23:43.115Z,8.37
2017-11-24T23:26:10.635Z,9.23
2017-11-24T23:28:38.175Z,9.30
2017-11-24T23:31:05.700Z,9.60
2017-11-24T23:33:33.252Z,10.50
2017-11-24T23:36:00.788Z,9.67
2017-11-24T23:38:28.322Z,5.83
2017-11-24T23:40:56.610Z,7.57
2017-11-24T23:43:24.153Z,5.43
2017-11-24T23:45:52.444Z,4.60
2017-11-24T23:48:20.742Z,4.40
2017-11-24T23:50:48.263Z,4.17
2017-11-24T23:53:15.810Z,4.63
2017-11-24T23:55:43.339Z,4.27
2017-11-24T23:58:10.923Z,4.70
